sensor_id;sensor_type;location;lat;lon;timestamp;P1;durP1;ratioP1;P2;durP2;ratioP2
33862;SDS011;20158;51.436;-2.742;2022-11-21T00:02:14;9.88;;;5.97;;
33862;SDS011;20158;51.436;-2.742;2022-11-21T00:04:59;7.20;;;5.45;;
33862;SDS011;20158;51.436;-2.742;2022-11-21T00:07:44;12.73;;;6.32;;
33862;SDS011;20158;51.436;-2.742;2022-11-21T00:10:28;11.80;;;6.32;;
33862;SDS011;20158;51.436;-2.742;2022-11-21T00:13:14;11.35;;;6.25;;
33862;SDS011;20158;51.436;-2.742;2022-11-21T00:16:04;10.70;;;5.38;;
33862;SDS011;20158;51.436;-2.742;2022-11-21T00:18:50;11.57;;;4.93;;
33862;SDS011;20158;51.436;-2.742;2022-11-21T00:21:34;10.35;;;5.68;;
33862;SDS011;20158;51.436;-2.742;2022-11-21T00:24:19;10.00;;;5.05;;
33862;SDS011;20158;51.436;-2.742;2022-11-21T00:27:03;12.68;;;5.65;;
33862;SDS011;20158;51.436;-2.742;2022-11-21T00:29:48;12.52;;;5.30;;
33862;SDS011;20158;51.436;-2.742;2022-11-21T00:32:33;10.63;;;4.80;;
33862;SDS011;20158;51.436;-2.742;2022-11-21T00:35:17;11.80;;;4.53;;
33862;SDS011;20158;51.436;-2.742;2022-11-21T00:38:02;7.68;;;4.13;;
33862;SDS011;20158;51.436;-2.742;2022-11-21T00:40:46;8.88;;;4.32;;
33862;SDS011;20158;51.436;-2.742;2022-11-21T00:43:31;6.63;;;3.65;;
33862;SDS011;20158;51.436;-2.742;2022-11-21T00:46:16;8.57;;;3.80;;
33862;SDS011;20158;51.436;-2.742;2022-11-21T00:49:00;10.38;;;4.47;;
33862;SDS011;20158;51.436;-2.742;2022-11-21T00:51:45;10.55;;;3.92;;
33862;SDS011;20158;51.436;-2.742;2022-11-21T00:54:29;11.63;;;5.22;;
33862;SDS011;20158;51.436;-2.742;2022-11-21T00:57:13;7.53;;;4.50;;
33862;SDS011;20158;51.436;-2.742;2022-11-21T00:59:58;9.60;;;3.53;;
33862;SDS011;20158;51.436;-2.742;2022-11-21T01:02:43;7.32;;;3.35;;
33862;SDS011;20158;51.436;-2.742;2022-11-21T01:05:27;10.90;;;4.03;;
33862;SDS011;20158;51.436;-2.742;2022-11-21T01:08:14;7.90;;;3.10;;
33862;SDS011;20158;51.436;-2.742;2022-11-21T01:11:01;8.23;;;3.92;;
33862;SDS011;20158;51.436;-2.742;2022-11-21T01:13:51;7.47;;;3.88;;
33862;SDS011;20158;51.436;-2.742;2022-11-21T01:16:37;10.57;;;3.92;;
33862;SDS011;20158;51.436;-2.742;2022-11-21T01:19:21;10.18;;;3.65;;
33862;SDS011;20158;51.436;-2.742;2022-11-21T01:22:06;5.00;;;3.13;;
33862;SDS011;20158;51.436;-2.742;2022-11-21T01:24:51;10.32;;;4.00;;
33862;SDS011;20158;51.436;-2.742;2022-11-21T01:27:35;11.55;;;3.67;;
33862;SDS011;20158;51.436;-2.742;2022-11-21T01:30:20;9.18;;;3.78;;
33862;SDS011;20158;51.436;-2.742;2022-11-21T01:33:04;9.02;;;3.78;;
33862;SDS011;20158;51.436;-2.742;2022-11-21T01:35:49;9.18;;;3.13;;
33862;SDS011;20158;51.436;-2.742;2022-11-21T01:38:34;11.40;;;3.92;;
33862;SDS011;20158;51.436;-2.742;2022-11-21T01:41:19;9.63;;;3.53;;
33862;SDS011;20158;51.436;-2.742;2022-11-21T01:46:59;10.77;;;3.40;;
33862;SDS011;20158;51.436;-2.742;2022-11-21T01:49:44;14.27;;;3.47;;
33862;SDS011;20158;51.436;-2.742;2022-11-21T01:52:29;10.32;;;3.38;;
33862;SDS011;20158;51.436;-2.742;2022-11-21T01:55:18;9.00;;;2.97;;
33862;SDS011;20158;51.436;-2.742;2022-11-21T01:58:02;7.03;;;3.85;;
33862;SDS011;20158;51.436;-2.742;2022-11-21T02:00:47;6.03;;;2.95;;
33862;SDS011;20158;51.436;-2.742;2022-11-21T02:03:33;6.10;;;2.60;;
33862;SDS011;20158;51.436;-2.742;2022-11-21T02:06:20;8.35;;;3.15;;
33862;SDS011;20158;51.436;-2.742;2022-11-21T02:09:05;7.68;;;3.20;;
33862;SDS011;20158;51.436;-2.742;2022-11-21T02:11:51;10.93;;;2.47;;
33862;SDS011;20158;51.436;-2.742;2022-11-21T02:14:41;8.18;;;2.55;;
33862;SDS011;20158;51.436;-2.742;2022-11-21T02:17:30;9.35;;;2.70;;
33862;SDS011;20158;51.436;-2.742;2022-11-21T02:20:16;6.50;;;2.42;;
33862;SDS011;20158;51.436;-2.742;2022-11-21T02:26:01;8.32;;;2.92;;
33862;SDS011;20158;51.436;-2.742;2022-11-21T02:28:46;11.73;;;3.17;;
33862;SDS011;20158;51.436;-2.742;2022-11-21T02:31:30;6.47;;;2.65;;
33862;SDS011;20158;51.436;-2.742;2022-11-21T02:34:15;7.30;;;2.80;;
33862;SDS011;20158;51.436;-2.742;2022-11-21T02:37:00;7.57;;;2.47;;
33862;SDS011;20158;51.436;-2.742;2022-11-21T02:39:45;5.40;;;2.47;;
33862;SDS011;20158;51.436;-2.742;2022-11-21T02:42:35;8.68;;;2.60;;
33862;SDS011;20158;51.436;-2.742;2022-11-21T02:45:29;7.80;;;2.67;;
33862;SDS011;20158;51.436;-2.742;2022-11-21T02:48:17;7.70;;;2.25;;
33862;SDS011;20158;51.436;-2.742;2022-11-21T02:51:02;10.20;;;3.22;;
33862;SDS011;20158;51.436;-2.742;2022-11-21T02:53:46;14.55;;;3.90;;
33862;SDS011;20158;51.436;-2.742;2022-11-21T02:56:31;8.52;;;2.70;;
33862;SDS011;20158;51.436;-2.742;2022-11-21T02:59:15;7.80;;;2.58;;
33862;SDS011;20158;51.436;-2.742;2022-11-21T03:02:00;8.25;;;2.70;;
33862;SDS011;20158;51.436;-2.742;2022-11-21T03:04:45;11.73;;;2.85;;
33862;SDS011;20158;51.436;-2.742;2022-11-21T03:07:29;10.73;;;2.90;;
33862;SDS011;20158;51.436;-2.742;2022-11-21T03:10:14;12.18;;;2.97;;
33862;SDS011;20158;51.436;-2.742;2022-11-21T03:12:58;12.77;;;3.00;;
33862;SDS011;20158;51.436;-2.742;2022-11-21T03:15:46;11.18;;;3.00;;
33862;SDS011;20158;51.436;-2.742;2022-11-21T03:18:30;13.23;;;3.08;;
33862;SDS011;20158;51.436;-2.742;2022-11-21T03:21:15;9.23;;;2.63;;
33862;SDS011;20158;51.436;-2.742;2022-11-21T03:23:59;6.53;;;2.33;;
33862;SDS011;20158;51.436;-2.742;2022-11-21T03:26:44;10.68;;;3.15;;
33862;SDS011;20158;51.436;-2.742;2022-11-21T03:29:29;11.60;;;2.67;;
33862;SDS011;20158;51.436;-2.742;2022-11-21T03:32:13;8.07;;;3.08;;
33862;SDS011;20158;51.436;-2.742;2022-11-21T03:34:58;8.63;;;2.28;;
33862;SDS011;20158;51.436;-2.742;2022-11-21T03:37:43;7.40;;;2.97;;
33862;SDS011;20158;51.436;-2.742;2022-11-21T03:40:27;11.10;;;2.78;;
33862;SDS011;20158;51.436;-2.742;2022-11-21T03:43:12;12.18;;;3.05;;
33862;SDS011;20158;51.436;-2.742;2022-11-21T03:45:56;11.63;;;2.63;;
33862;SDS011;20158;51.436;-2.742;2022-11-21T03:48:41;14.07;;;3.22;;
33862;SDS011;20158;51.436;-2.742;2022-11-21T03:51:26;10.00;;;2.70;;
33862;SDS011;20158;51.436;-2.742;2022-11-21T03:54:10;9.88;;;2.08;;
33862;SDS011;20158;51.436;-2.742;2022-11-21T03:56:55;11.88;;;2.83;;
33862;SDS011;20158;51.436;-2.742;2022-11-21T03:59:40;11.45;;;3.05;;
33862;SDS011;20158;51.436;-2.742;2022-11-21T04:02:24;11.60;;;2.90;;
33862;SDS011;20158;51.436;-2.742;2022-11-21T04:05:09;10.90;;;2.58;;
33862;SDS011;20158;51.436;-2.742;2022-11-21T04:07:53;11.98;;;2.80;;
33862;SDS011;20158;51.436;-2.742;2022-11-21T04:10:38;10.77;;;2.78;;
33862;SDS011;20158;51.436;-2.742;2022-11-21T04:13:23;13.65;;;3.58;;
33862;SDS011;20158;51.436;-2.742;2022-11-21T04:16:07;13.13;;;3.63;;
33862;SDS011;20158;51.436;-2.742;2022-11-21T04:18:52;9.75;;;2.95;;
33862;SDS011;20158;51.436;-2.742;2022-11-21T04:21:37;10.82;;;2.58;;
33862;SDS011;20158;51.436;-2.742;2022-11-21T04:24:21;11.55;;;4.15;;
33862;SDS011;20158;51.436;-2.742;2022-11-21T04:27:06;8.15;;;2.40;;
33862;SDS011;20158;51.436;-2.742;2022-11-21T04:29:50;14.30;;;2.95;;
33862;SDS011;20158;51.436;-2.742;2022-11-21T04:32:35;13.88;;;4.25;;
33862;SDS011;20158;51.436;-2.742;2022-11-21T04:35:19;11.95;;;3.03;;
33862;SDS011;20158;51.436;-2.742;2022-11-21T04:38:05;11.57;;;2.42;;
33862;SDS011;20158;51.436;-2.742;2022-11-21T04:40:50;19.05;;;4.43;;
33862;SDS011;20158;51.436;-2.742;2022-11-21T04:43:34;11.32;;;2.65;;
33862;SDS011;20158;51.436;-2.742;2022-11-21T04:46:19;14.65;;;2.95;;
33862;SDS011;20158;51.436;-2.742;2022-11-21T04:49:03;13.50;;;3.58;;
33862;SDS011;20158;51.436;-2.742;2022-11-21T04:51:48;6.53;;;2.35;;
33862;SDS011;20158;51.436;-2.742;2022-11-21T04:54:32;15.35;;;3.63;;
33862;SDS011;20158;51.436;-2.742;2022-11-21T04:57:17;11.15;;;2.60;;
33862;SDS011;20158;51.436;-2.742;2022-11-21T05:00:02;10.63;;;2.75;;
33862;SDS011;20158;51.436;-2.742;2022-11-21T05:02:47;11.23;;;2.90;;
33862;SDS011;20158;51.436;-2.742;2022-11-21T05:05:32;12.15;;;2.70;;
33862;SDS011;20158;51.436;-2.742;2022-11-21T05:08:17;11.60;;;2.63;;
33862;SDS011;20158;51.436;-2.742;2022-11-21T05:11:01;8.63;;;2.63;;
33862;SDS011;20158;51.436;-2.742;2022-11-21T05:14:04;12.82;;;3.15;;
33862;SDS011;20158;51.436;-2.742;2022-11-21T05:16:49;13.98;;;3.00;;
33862;SDS011;20158;51.436;-2.742;2022-11-21T05:19:33;11.50;;;3.38;;
33862;SDS011;20158;51.436;-2.742;2022-11-21T05:22:18;13.63;;;3.00;;
33862;SDS011;20158;51.436;-2.742;2022-11-21T05:25:02;14.13;;;3.20;;
33862;SDS011;20158;51.436;-2.742;2022-11-21T05:27:47;8.70;;;2.55;;
33862;SDS011;20158;51.436;-2.742;2022-11-21T05:30:32;14.73;;;2.90;;
33862;SDS011;20158;51.436;-2.742;2022-11-21T05:33:17;10.55;;;2.65;;
33862;SDS011;20158;51.436;-2.742;2022-11-21T05:36:01;13.50;;;3.42;;
33862;SDS011;20158;51.436;-2.742;2022-11-21T05:38:46;11.40;;;2.30;;
33862;SDS011;20158;51.436;-2.742;2022-11-21T05:41:31;16.55;;;4.68;;
33862;SDS011;20158;51.436;-2.742;2022-11-21T05:44:15;7.95;;;2.65;;
33862;SDS011;20158;51.436;-2.742;2022-11-21T05:47:00;9.95;;;2.63;;
33862;SDS011;20158;51.436;-2.742;2022-11-21T05:49:45;13.75;;;3.95;;
33862;SDS011;20158;51.436;-2.742;2022-11-21T05:52:29;9.57;;;4.18;;
33862;SDS011;20158;51.436;-2.742;2022-11-21T05:55:14;12.02;;;3.15;;
33862;SDS011;20158;51.436;-2.742;2022-11-21T05:57:59;11.40;;;2.50;;
33862;SDS011;20158;51.436;-2.742;2022-11-21T06:00:44;14.23;;;3.45;;
33862;SDS011;20158;51.436;-2.742;2022-11-21T06:03:30;7.40;;;2.28;;
33862;SDS011;20158;51.436;-2.742;2022-11-21T06:06:16;10.77;;;3.22;;
33862;SDS011;20158;51.436;-2.742;2022-11-21T06:09:01;10.73;;;2.85;;
33862;SDS011;20158;51.436;-2.742;2022-11-21T06:11:46;8.57;;;2.88;;
33862;SDS011;20158;51.436;-2.742;2022-11-21T06:14:30;12.82;;;2.75;;
33862;SDS011;20158;51.436;-2.742;2022-11-21T06:17:15;12.30;;;3.13;;
33862;SDS011;20158;51.436;-2.742;2022-11-21T06:20:00;14.95;;;2.90;;
33862;SDS011;20158;51.436;-2.742;2022-11-21T06:22:44;14.80;;;2.58;;
33862;SDS011;20158;51.436;-2.742;2022-11-21T06:25:29;12.13;;;2.63;;
33862;SDS011;20158;51.436;-2.742;2022-11-21T06:28:13;12.55;;;3.05;;
33862;SDS011;20158;51.436;-2.742;2022-11-21T06:31:02;9.93;;;3.83;;
33862;SDS011;20158;51.436;-2.742;2022-11-21T06:33:52;13.15;;;2.53;;
33862;SDS011;20158;51.436;-2.742;2022-11-21T06:36:37;14.13;;;3.63;;
33862;SDS011;20158;51.436;-2.742;2022-11-21T06:39:22;12.43;;;2.58;;
33862;SDS011;20158;51.436;-2.742;2022-11-21T06:42:07;11.63;;;3.67;;
33862;SDS011;20158;51.436;-2.742;2022-11-21T06:44:51;10.85;;;2.15;;
33862;SDS011;20158;51.436;-2.742;2022-11-21T06:47:35;10.10;;;3.63;;
33862;SDS011;20158;51.436;-2.742;2022-11-21T06:50:20;14.32;;;3.67;;
33862;SDS011;20158;51.436;-2.742;2022-11-21T06:53:05;14.98;;;3.28;;
33862;SDS011;20158;51.436;-2.742;2022-11-21T06:55:50;10.98;;;2.40;;
33862;SDS011;20158;51.436;-2.742;2022-11-21T06:58:35;9.10;;;2.63;;
33862;SDS011;20158;51.436;-2.742;2022-11-21T07:01:20;17.02;;;3.00;;
33862;SDS011;20158;51.436;-2.742;2022-11-21T07:04:05;12.55;;;3.50;;
33862;SDS011;20158;51.436;-2.742;2022-11-21T07:06:50;14.30;;;2.90;;
33862;SDS011;20158;51.436;-2.742;2022-11-21T07:09:35;13.38;;;4.47;;
33862;SDS011;20158;51.436;-2.742;2022-11-21T07:12:19;9.48;;;2.28;;
33862;SDS011;20158;51.436;-2.742;2022-11-21T07:15:22;13.07;;;4.03;;
33862;SDS011;20158;51.436;-2.742;2022-11-21T07:18:07;10.68;;;3.55;;
33862;SDS011;20158;51.436;-2.742;2022-11-21T07:20:53;16.23;;;3.67;;
33862;SDS011;20158;51.436;-2.742;2022-11-21T07:23:44;14.15;;;3.30;;
33862;SDS011;20158;51.436;-2.742;2022-11-21T07:26:28;13.32;;;3.53;;
33862;SDS011;20158;51.436;-2.742;2022-11-21T07:29:13;14.77;;;3.15;;
33862;SDS011;20158;51.436;-2.742;2022-11-21T07:31:58;13.77;;;3.70;;
33862;SDS011;20158;51.436;-2.742;2022-11-21T07:34:42;12.75;;;3.00;;
33862;SDS011;20158;51.436;-2.742;2022-11-21T07:37:27;12.43;;;2.85;;
33862;SDS011;20158;51.436;-2.742;2022-11-21T07:40:12;12.98;;;2.45;;
33862;SDS011;20158;51.436;-2.742;2022-11-21T07:43:03;10.80;;;3.38;;
33862;SDS011;20158;51.436;-2.742;2022-11-21T07:45:48;12.00;;;2.97;;
33862;SDS011;20158;51.436;-2.742;2022-11-21T07:48:33;8.93;;;2.65;;
33862;SDS011;20158;51.436;-2.742;2022-11-21T07:51:17;12.48;;;3.28;;
33862;SDS011;20158;51.436;-2.742;2022-11-21T07:54:02;11.07;;;2.92;;
33862;SDS011;20158;51.436;-2.742;2022-11-21T07:56:47;10.70;;;2.47;;
33862;SDS011;20158;51.436;-2.742;2022-11-21T07:59:31;8.80;;;2.58;;
33862;SDS011;20158;51.436;-2.742;2022-11-21T08:02:23;10.70;;;2.70;;
33862;SDS011;20158;51.436;-2.742;2022-11-21T08:05:11;12.63;;;2.72;;
33862;SDS011;20158;51.436;-2.742;2022-11-21T08:07:55;13.50;;;2.65;;
33862;SDS011;20158;51.436;-2.742;2022-11-21T08:10:41;12.25;;;3.40;;
33862;SDS011;20158;51.436;-2.742;2022-11-21T08:13:27;11.38;;;2.83;;
33862;SDS011;20158;51.436;-2.742;2022-11-21T08:16:12;11.13;;;2.92;;
33862;SDS011;20158;51.436;-2.742;2022-11-21T08:18:56;10.10;;;3.13;;
33862;SDS011;20158;51.436;-2.742;2022-11-21T08:21:41;7.28;;;2.92;;
33862;SDS011;20158;51.436;-2.742;2022-11-21T08:24:26;11.13;;;3.33;;
33862;SDS011;20158;51.436;-2.742;2022-11-21T08:27:11;11.00;;;2.72;;
33862;SDS011;20158;51.436;-2.742;2022-11-21T08:29:55;10.15;;;2.53;;
33862;SDS011;20158;51.436;-2.742;2022-11-21T08:32:40;12.02;;;2.67;;
33862;SDS011;20158;51.436;-2.742;2022-11-21T08:35:25;8.27;;;3.17;;
33862;SDS011;20158;51.436;-2.742;2022-11-21T08:38:10;12.40;;;3.40;;
33862;SDS011;20158;51.436;-2.742;2022-11-21T08:40:54;7.82;;;2.47;;
33862;SDS011;20158;51.436;-2.742;2022-11-21T08:43:58;13.88;;;3.42;;
33862;SDS011;20158;51.436;-2.742;2022-11-21T08:46:42;9.00;;;2.70;;
33862;SDS011;20158;51.436;-2.742;2022-11-21T08:49:27;9.43;;;2.65;;
33862;SDS011;20158;51.436;-2.742;2022-11-21T08:52:12;11.85;;;3.15;;
33862;SDS011;20158;51.436;-2.742;2022-11-21T08:54:57;8.63;;;2.50;;
33862;SDS011;20158;51.436;-2.742;2022-11-21T08:57:42;9.35;;;2.95;;
33862;SDS011;20158;51.436;-2.742;2022-11-21T09:00:27;12.55;;;2.88;;
33862;SDS011;20158;51.436;-2.742;2022-11-21T09:03:11;10.50;;;3.45;;
33862;SDS011;20158;51.436;-2.742;2022-11-21T09:05:56;10.02;;;3.10;;
33862;SDS011;20158;51.436;-2.742;2022-11-21T09:08:43;9.57;;;2.67;;
33862;SDS011;20158;51.436;-2.742;2022-11-21T09:11:28;12.15;;;3.60;;
33862;SDS011;20158;51.436;-2.742;2022-11-21T09:14:12;10.18;;;3.15;;
33862;SDS011;20158;51.436;-2.742;2022-11-21T09:17:15;12.88;;;3.25;;
33862;SDS011;20158;51.436;-2.742;2022-11-21T09:20:18;15.57;;;4.05;;
33862;SDS011;20158;51.436;-2.742;2022-11-21T09:23:06;8.82;;;2.80;;
33862;SDS011;20158;51.436;-2.742;2022-11-21T09:25:56;15.13;;;3.08;;
33862;SDS011;20158;51.436;-2.742;2022-11-21T09:28:42;10.85;;;3.45;;
33862;SDS011;20158;51.436;-2.742;2022-11-21T09:31:27;9.07;;;2.75;;
33862;SDS011;20158;51.436;-2.742;2022-11-21T09:34:12;8.07;;;2.67;;
33862;SDS011;20158;51.436;-2.742;2022-11-21T09:36:56;10.38;;;4.05;;
33862;SDS011;20158;51.436;-2.742;2022-11-21T09:39:41;10.10;;;3.72;;
33862;SDS011;20158;51.436;-2.742;2022-11-21T09:42:41;8.20;;;3.47;;
33862;SDS011;20158;51.436;-2.742;2022-11-21T09:45:49;7.68;;;3.13;;
33862;SDS011;20158;51.436;-2.742;2022-11-21T09:48:38;11.57;;;2.72;;
33862;SDS011;20158;51.436;-2.742;2022-11-21T09:51:27;11.25;;;3.50;;
33862;SDS011;20158;51.436;-2.742;2022-11-21T09:56:58;9.20;;;2.95;;
33862;SDS011;20158;51.436;-2.742;2022-11-21T09:59:44;7.65;;;2.70;;
33862;SDS011;20158;51.436;-2.742;2022-11-21T10:02:30;8.77;;;3.65;;
33862;SDS011;20158;51.436;-2.742;2022-11-21T10:05:15;10.95;;;2.72;;
33862;SDS011;20158;51.436;-2.742;2022-11-21T10:08:02;7.78;;;2.28;;
33862;SDS011;20158;51.436;-2.742;2022-11-21T10:11:08;7.75;;;2.33;;
33862;SDS011;20158;51.436;-2.742;2022-11-21T10:14:11;9.48;;;1.90;;
33862;SDS011;20158;51.436;-2.742;2022-11-21T10:23:51;7.00;;;2.40;;
33862;SDS011;20158;51.436;-2.742;2022-11-21T10:27:00;10.45;;;3.78;;
33862;SDS011;20158;51.436;-2.742;2022-11-21T10:29:52;7.30;;;2.10;;
33862;SDS011;20158;51.436;-2.742;2022-11-21T10:32:42;5.88;;;2.60;;
33862;SDS011;20158;51.436;-2.742;2022-11-21T10:35:37;7.65;;;2.58;;
33862;SDS011;20158;51.436;-2.742;2022-11-21T10:38:24;9.07;;;2.90;;
33862;SDS011;20158;51.436;-2.742;2022-11-21T10:41:29;6.68;;;2.25;;
33862;SDS011;20158;51.436;-2.742;2022-11-21T10:44:27;7.70;;;2.03;;
33862;SDS011;20158;51.436;-2.742;2022-11-21T10:47:32;11.85;;;3.28;;
33862;SDS011;20158;51.436;-2.742;2022-11-21T10:53:24;7.07;;;1.88;;
33862;SDS011;20158;51.436;-2.742;2022-11-21T10:56:28;7.38;;;1.95;;
33862;SDS011;20158;51.436;-2.742;2022-11-21T10:59:19;8.20;;;2.10;;
33862;SDS011;20158;51.436;-2.742;2022-11-21T11:08:11;4.13;;;2.47;;
33862;SDS011;20158;51.436;-2.742;2022-11-21T11:11:04;4.75;;;1.60;;
33862;SDS011;20158;51.436;-2.742;2022-11-21T11:16:45;7.28;;;1.80;;
33862;SDS011;20158;51.436;-2.742;2022-11-21T11:19:30;4.28;;;1.67;;
33862;SDS011;20158;51.436;-2.742;2022-11-21T11:22:25;5.05;;;1.50;;
33862;SDS011;20158;51.436;-2.742;2022-11-21T11:25:11;6.32;;;1.60;;
33862;SDS011;20158;51.436;-2.742;2022-11-21T11:27:58;5.07;;;1.48;;
33862;SDS011;20158;51.436;-2.742;2022-11-21T11:30:50;3.97;;;1.50;;
33862;SDS011;20158;51.436;-2.742;2022-11-21T11:33:39;9.77;;;2.17;;
33862;SDS011;20158;51.436;-2.742;2022-11-21T11:36:37;4.55;;;1.58;;
33862;SDS011;20158;51.436;-2.742;2022-11-21T11:49:51;4.70;;;1.60;;
33862;SDS011;20158;51.436;-2.742;2022-11-21T11:53:00;7.97;;;2.90;;
33862;SDS011;20158;51.436;-2.742;2022-11-21T11:56:12;4.00;;;1.50;;
33862;SDS011;20158;51.436;-2.742;2022-11-21T11:59:20;6.50;;;1.67;;
33862;SDS011;20158;51.436;-2.742;2022-11-21T12:03:13;19.75;;;3.95;;
33862;SDS011;20158;51.436;-2.742;2022-11-21T12:06:04;6.20;;;1.98;;
33862;SDS011;20158;51.436;-2.742;2022-11-21T12:09:15;4.03;;;1.38;;
33862;SDS011;20158;51.436;-2.742;2022-11-21T12:12:13;5.60;;;1.45;;
33862;SDS011;20158;51.436;-2.742;2022-11-21T12:18:34;3.05;;;1.20;;
33862;SDS011;20158;51.436;-2.742;2022-11-21T12:21:24;4.45;;;1.63;;
33862;SDS011;20158;51.436;-2.742;2022-11-21T12:24:09;5.45;;;1.90;;
33862;SDS011;20158;51.436;-2.742;2022-11-21T12:26:57;3.60;;;1.50;;
33862;SDS011;20158;51.436;-2.742;2022-11-21T12:33:05;2.97;;;0.95;;
33862;SDS011;20158;51.436;-2.742;2022-11-21T12:41:52;3.15;;;1.27;;
33862;SDS011;20158;51.436;-2.742;2022-11-21T12:55:48;3.85;;;1.85;;
33862;SDS011;20158;51.436;-2.742;2022-11-21T13:06:47;8.93;;;2.55;;
33862;SDS011;20158;51.436;-2.742;2022-11-21T13:09:36;6.15;;;2.22;;
33862;SDS011;20158;51.436;-2.742;2022-11-21T13:15:30;10.20;;;2.83;;
33862;SDS011;20158;51.436;-2.742;2022-11-21T13:18:30;12.77;;;2.13;;
33862;SDS011;20158;51.436;-2.742;2022-11-21T13:24:53;11.95;;;2.33;;
33862;SDS011;20158;51.436;-2.742;2022-11-21T13:30:24;14.88;;;2.83;;
33862;SDS011;20158;51.436;-2.742;2022-11-21T13:33:09;14.60;;;3.17;;
33862;SDS011;20158;51.436;-2.742;2022-11-21T13:42:01;10.20;;;2.35;;
33862;SDS011;20158;51.436;-2.742;2022-11-21T13:45:40;10.52;;;3.25;;
33862;SDS011;20158;51.436;-2.742;2022-11-21T14:00:30;3.42;;;1.10;;
33862;SDS011;20158;51.436;-2.742;2022-11-21T14:06:46;5.53;;;1.50;;
33862;SDS011;20158;51.436;-2.742;2022-11-21T14:09:33;2.53;;;1.35;;
33862;SDS011;20158;51.436;-2.742;2022-11-21T14:15:50;2.38;;;1.15;;
33862;SDS011;20158;51.436;-2.742;2022-11-21T14:18:34;2.33;;;0.82;;
33862;SDS011;20158;51.436;-2.742;2022-11-21T14:21:22;2.53;;;1.75;;
33862;SDS011;20158;51.436;-2.742;2022-11-21T14:24:15;3.72;;;1.35;;
33862;SDS011;20158;51.436;-2.742;2022-11-21T14:27:02;2.65;;;0.88;;
33862;SDS011;20158;51.436;-2.742;2022-11-21T14:29:49;3.30;;;0.90;;
33862;SDS011;20158;51.436;-2.742;2022-11-21T14:32:34;2.00;;;0.90;;
33862;SDS011;20158;51.436;-2.742;2022-11-21T14:35:19;0.95;;;0.60;;
33862;SDS011;20158;51.436;-2.742;2022-11-21T14:38:05;1.95;;;1.00;;
33862;SDS011;20158;51.436;-2.742;2022-11-21T14:40:50;1.50;;;1.13;;
33862;SDS011;20158;51.436;-2.742;2022-11-21T14:50:21;2.97;;;0.90;;
33862;SDS011;20158;51.436;-2.742;2022-11-21T14:53:09;5.47;;;1.30;;
33862;SDS011;20158;51.436;-2.742;2022-11-21T14:55:54;4.95;;;1.10;;
33862;SDS011;20158;51.436;-2.742;2022-11-21T14:58:39;1.13;;;0.75;;
33862;SDS011;20158;51.436;-2.742;2022-11-21T15:01:24;1.90;;;0.90;;
33862;SDS011;20158;51.436;-2.742;2022-11-21T15:04:11;2.60;;;1.08;;
33862;SDS011;20158;51.436;-2.742;2022-11-21T15:06:57;3.47;;;0.80;;
33862;SDS011;20158;51.436;-2.742;2022-11-21T15:09:42;3.95;;;0.70;;
33862;SDS011;20158;51.436;-2.742;2022-11-21T15:15:34;2.05;;;0.80;;
33862;SDS011;20158;51.436;-2.742;2022-11-21T15:18:23;2.85;;;0.65;;
33862;SDS011;20158;51.436;-2.742;2022-11-21T15:21:10;1.48;;;0.80;;
33862;SDS011;20158;51.436;-2.742;2022-11-21T15:23:57;2.38;;;0.95;;
33862;SDS011;20158;51.436;-2.742;2022-11-21T15:26:58;2.80;;;0.80;;
33862;SDS011;20158;51.436;-2.742;2022-11-21T15:29:43;2.70;;;0.88;;
33862;SDS011;20158;51.436;-2.742;2022-11-21T15:32:28;2.30;;;0.90;;
33862;SDS011;20158;51.436;-2.742;2022-11-21T15:38:32;2.35;;;1.83;;
33862;SDS011;20158;51.436;-2.742;2022-11-21T15:41:39;2.17;;;0.90;;
33862;SDS011;20158;51.436;-2.742;2022-11-21T15:44:24;2.67;;;1.00;;
33862;SDS011;20158;51.436;-2.742;2022-11-21T15:47:08;2.92;;;0.93;;
33862;SDS011;20158;51.436;-2.742;2022-11-21T15:49:53;5.53;;;1.10;;
33862;SDS011;20158;51.436;-2.742;2022-11-21T15:52:48;6.10;;;1.60;;
33862;SDS011;20158;51.436;-2.742;2022-11-21T15:55:33;4.93;;;1.73;;
33862;SDS011;20158;51.436;-2.742;2022-11-21T15:58:18;3.85;;;1.35;;
33862;SDS011;20158;51.436;-2.742;2022-11-21T16:01:02;5.60;;;1.27;;
33862;SDS011;20158;51.436;-2.742;2022-11-21T16:03:48;5.30;;;1.90;;
33862;SDS011;20158;51.436;-2.742;2022-11-21T16:06:36;6.47;;;2.15;;
33862;SDS011;20158;51.436;-2.742;2022-11-21T16:09:21;4.90;;;1.42;;
33862;SDS011;20158;51.436;-2.742;2022-11-21T16:12:05;6.63;;;2.00;;
33862;SDS011;20158;51.436;-2.742;2022-11-21T16:14:51;6.75;;;1.80;;
33862;SDS011;20158;51.436;-2.742;2022-11-21T16:17:35;4.20;;;2.28;;
33862;SDS011;20158;51.436;-2.742;2022-11-21T16:20:22;7.25;;;1.77;;
33862;SDS011;20158;51.436;-2.742;2022-11-21T16:23:07;5.28;;;1.45;;
33862;SDS011;20158;51.436;-2.742;2022-11-21T16:25:53;6.60;;;2.33;;
33862;SDS011;20158;51.436;-2.742;2022-11-21T16:28:38;7.75;;;2.20;;
33862;SDS011;20158;51.436;-2.742;2022-11-21T16:31:24;6.40;;;1.55;;
33862;SDS011;20158;51.436;-2.742;2022-11-21T16:34:10;6.07;;;1.90;;
33862;SDS011;20158;51.436;-2.742;2022-11-21T16:36:54;7.53;;;1.70;;
33862;SDS011;20158;51.436;-2.742;2022-11-21T16:39:39;8.85;;;2.00;;
33862;SDS011;20158;51.436;-2.742;2022-11-21T16:42:24;6.53;;;1.83;;
33862;SDS011;20158;51.436;-2.742;2022-11-21T16:45:09;5.55;;;1.60;;
33862;SDS011;20158;51.436;-2.742;2022-11-21T16:47:54;6.00;;;1.60;;
33862;SDS011;20158;51.436;-2.742;2022-11-21T16:50:38;9.57;;;2.45;;
33862;SDS011;20158;51.436;-2.742;2022-11-21T16:53:23;6.03;;;1.90;;
33862;SDS011;20158;51.436;-2.742;2022-11-21T16:56:08;8.23;;;2.00;;
33862;SDS011;20158;51.436;-2.742;2022-11-21T16:58:53;8.23;;;2.03;;
33862;SDS011;20158;51.436;-2.742;2022-11-21T17:01:38;9.98;;;2.92;;
33862;SDS011;20158;51.436;-2.742;2022-11-21T17:04:23;8.75;;;2.08;;
33862;SDS011;20158;51.436;-2.742;2022-11-21T17:07:07;8.75;;;1.90;;
33862;SDS011;20158;51.436;-2.742;2022-11-21T17:09:52;9.57;;;2.97;;
33862;SDS011;20158;51.436;-2.742;2022-11-21T17:12:37;10.23;;;2.05;;
33862;SDS011;20158;51.436;-2.742;2022-11-21T17:15:23;9.63;;;2.40;;
33862;SDS011;20158;51.436;-2.742;2022-11-21T17:18:07;8.70;;;2.17;;
33862;SDS011;20158;51.436;-2.742;2022-11-21T17:20:51;7.80;;;1.92;;
33862;SDS011;20158;51.436;-2.742;2022-11-21T17:23:36;9.68;;;2.20;;
33862;SDS011;20158;51.436;-2.742;2022-11-21T17:26:23;6.18;;;1.88;;
33862;SDS011;20158;51.436;-2.742;2022-11-21T17:29:10;6.43;;;2.55;;
33862;SDS011;20158;51.436;-2.742;2022-11-21T17:31:54;9.25;;;2.63;;
33862;SDS011;20158;51.436;-2.742;2022-11-21T17:34:39;10.55;;;2.35;;
33862;SDS011;20158;51.436;-2.742;2022-11-21T17:37:24;7.47;;;2.67;;
33862;SDS011;20158;51.436;-2.742;2022-11-21T17:40:08;9.68;;;3.08;;
33862;SDS011;20158;51.436;-2.742;2022-11-21T17:42:55;7.90;;;2.10;;
33862;SDS011;20158;51.436;-2.742;2022-11-21T17:45:39;12.32;;;2.05;;
33862;SDS011;20158;51.436;-2.742;2022-11-21T17:48:24;7.43;;;2.08;;
33862;SDS011;20158;51.436;-2.742;2022-11-21T17:51:12;8.77;;;2.67;;
33862;SDS011;20158;51.436;-2.742;2022-11-21T17:53:59;7.53;;;2.20;;
33862;SDS011;20158;51.436;-2.742;2022-11-21T17:56:44;7.88;;;1.90;;
33862;SDS011;20158;51.436;-2.742;2022-11-21T17:59:29;8.48;;;2.17;;
33862;SDS011;20158;51.436;-2.742;2022-11-21T18:02:13;8.75;;;2.30;;
33862;SDS011;20158;51.436;-2.742;2022-11-21T18:05:00;6.63;;;1.88;;
33862;SDS011;20158;51.436;-2.742;2022-11-21T18:07:45;14.00;;;2.35;;
33862;SDS011;20158;51.436;-2.742;2022-11-21T18:10:29;7.72;;;2.38;;
33862;SDS011;20158;51.436;-2.742;2022-11-21T18:13:14;8.63;;;1.90;;
33862;SDS011;20158;51.436;-2.742;2022-11-21T18:15:59;7.35;;;2.13;;
33862;SDS011;20158;51.436;-2.742;2022-11-21T18:18:45;7.88;;;2.45;;
33862;SDS011;20158;51.436;-2.742;2022-11-21T18:21:31;11.25;;;2.25;;
33862;SDS011;20158;51.436;-2.742;2022-11-21T18:24:16;6.93;;;2.17;;